Shin-oh Maru — JG5594 — position and weather

sailwx.info

Track history (hours):
 
Tides and Currents Weather Stations Pressure Air Temp Water Temp Dewpoint Dewpoint Depression Visibility Wind Speed Wind Dir Waves Ship Positions

Shin-oh Maru

Last reported at 2015-Aug-03 01:33 UTC. Time now 2015-Aug-03 02:34 UTC.
Position N 36°17' E 141°13'.

Length 161 m; draft 7 m.

Type: Ship (hazmat cat A). MMSI: 431100859.

Date/timePositionNaut miles runAvg speedWind from/ knotsBaromVisibWave heightAir tempDewpointWater temp
2015-Aug-03 01:33N 36°17' E 141°13'3818.6
2015-Aug-02 23:30N 36°54' E 141°25'2 0.0
2015-Aug-01 01:23N 36°56' E 141°25'1819.3
2015-Aug-01 00:26N 36°38' E 141°20'1918.8
2015-Jul-31 23:24N 36°20' E 141°13'1619.3
2015-Jul-31 22:33N 36°04' E 141°08'1919.4
2015-Jul-31 21:33N 35°45' E 141°03'1918.9
2015-Jul-31 20:33N 35°28' E 140°52'2018.6
2015-Jul-31 19:27N 35°12' E 140°37'1918.9
2015-Jul-31 18:28N 34°60' E 140°19'1719.0
2015-Jul-31 17:33N 34°51' E 140°01'1716.5
2015-Jul-31 16:33N 34°57' E 139°42'1817.8
2015-Jul-31 15:33N 35°15' E 139°46'1212.5
2015-Jul-31 14:33N 35°27' E 139°48'1010.4
2015-Jul-31 13:34N 35°38' E 139°46'0 0.0
2015-Jul-31 12:34N 35°38' E 139°46'0 0.0
2015-Jul-31 11:34N 35°38' E 139°46'0 0.0
2015-Jul-31 10:34N 35°38' E 139°46'0 0.0
2015-Jul-31 09:30N 35°38' E 139°46'0 0.0
2015-Jul-31 08:33N 35°38' E 139°46'1010.3
2015-Jul-31 07:33N 35°29' E 139°53'1313.4
2015-Jul-31 06:33N 35°17' E 139°45'1615.9
2015-Jul-31 05:33N 35°01' E 139°44'1515.2
2015-Jul-31 04:33N 34°51' E 139°57'1817.9
2015-Jul-31 03:33N 34°58' E 140°17'1818.3
2015-Jul-31 02:33N 35°10' E 140°34'1918.6
2015-Jul-31 01:33N 35°25' E 140°48'1818.3
2015-Jul-31 00:33N 35°40' E 140°59'1918.6
2015-Jul-30 23:33N 35°58' E 141°06'1918.7
2015-Jul-30 22:33N 36°16' E 141°12'1919.3
2015-Jul-30 21:33N 36°35' E 141°18'1919.4
2015-Jul-30 20:33N 36°54' E 141°24'23 0.5
2015-Jul-29 00:18N 36°31' E 141°17'1519.5
2015-Jul-28 23:31N 36°16' E 141°13'1919.5
2015-Jul-28 22:33N 35°58' E 141°08'2019.6
2015-Jul-28 21:33N 35°39' E 141°02'2019.8
2015-Jul-28 20:33N 35°23' E 140°47'2019.4
2015-Jul-28 19:32N 35°08' E 140°31'1919.1
2015-Jul-28 18:33N 34°57' E 140°13'2019.6
2015-Jul-28 17:33N 34°52' E 139°50'1717.3
2015-Jul-28 16:33N 35°08' E 139°45'1413.6
2015-Jul-28 15:33N 35°22' E 139°42'1414.2
2015-Jul-28 14:33N 35°35' E 139°47'3 2.9
2015-Jul-28 13:33N 35°38' E 139°46'0 0.0
2015-Jul-28 12:27N 35°38' E 139°46'0 0.0
2015-Jul-28 11:33N 35°38' E 139°46'0 0.0
2015-Jul-28 10:33N 35°38' E 139°46'0 0.0
2015-Jul-28 09:33N 35°38' E 139°46'3 3.0
2015-Jul-28 08:33N 35°35' E 139°48'1111.2
2015-Jul-28 07:33N 35°24' E 139°46'1111.3
2015-Jul-28 06:33N 35°13' E 139°47'1514.8
2015-Jul-28 05:34N 34°58' E 139°43'1212.4
2015-Jul-28 04:33N 34°51' E 139°56'1817.8
2015-Jul-28 03:33N 34°59' E 140°16'1817.7
2015-Jul-28 02:34N 35°09' E 140°33'1817.6
2015-Jul-28 01:33N 35°24' E 140°45'5317.8
2015-Jul-27 22:33N 36°14' E 141°10'1818.1
2015-Jul-27 21:33N 36°31' E 141°15'1918.8
2015-Jul-27 20:34N 36°49' E 141°21'11 0.3
2015-Jul-26 00:09N 36°38' E 141°20'1119.0
2015-Jul-25 23:33N 36°27' E 141°17'1918.8
2015-Jul-25 22:33N 36°09' E 141°11'1918.8
2015-Jul-25 21:33N 35°50' E 141°05'1918.8
2015-Jul-25 20:33N 35°33' E 140°56'2019.2
2015-Jul-25 19:32N 35°18' E 140°40'1919.5
2015-Jul-25 18:33N 35°04' E 140°25'1818.3
2015-Jul-25 17:33N 34°54' E 140°06'1717.3
2015-Jul-25 16:33N 34°54' E 139°45'1918.8
2015-Jul-25 15:33N 35°13' E 139°46'1312.9
2015-Jul-25 14:34N 35°25' E 139°44'1212.0
2015-Jul-25 13:33N 35°37' E 139°46'0 0.3
2015-Jul-25 12:32N 35°38' E 139°46'0 0.0
2015-Jul-25 11:32N 35°38' E 139°46'0 0.0
2015-Jul-25 10:32N 35°38' E 139°46'0 0.0
2015-Jul-25 09:32N 35°38' E 139°46'1 0.7
2015-Jul-25 08:33N 35°37' E 139°46'1111.1
2015-Jul-25 07:33N 35°26' E 139°48'1211.5
2015-Jul-25 06:33N 35°15' E 139°47'1716.7
2015-Jul-25 05:33N 34°58' E 139°44'1313.0
2015-Jul-25 04:33N 34°52' E 139°58'1918.6
2015-Jul-25 03:31N 35°00' E 140°19'1818.3
2015-Jul-25 02:33N 35°12' E 140°35'3718.4
2015-Jul-25 00:32N 35°43' E 141°00'2018.8
2015-Jul-24 23:29N 36°02' E 141°09'1819.4
2015-Jul-24 22:33N 36°19' E 141°14'1919.0
2015-Jul-24 21:32N 36°38' E 141°20'1918.8
2015-Jul-24 20:33N 36°56' E 141°27'  
Track history (hours):
 
Tides and Currents Weather Stations Pressure Air Temp Water Temp Dewpoint Dewpoint Depression Visibility Wind Speed Wind Dir Waves Ship Positions

Shin-oh Maru

Last reported at 2015-Aug-03 01:33 UTC. Time now 2015-Aug-03 02:34 UTC.
Position N 36°17' E 141°13'.

Length 161 m; draft 7 m.

Type: Ship (hazmat cat A). MMSI: 431100859.

Date/timePositionNaut miles runAvg speedWind from/ knotsBaromVisibWave heightAir tempDewpointWater temp
2015-Aug-03 01:33N 36°17' E 141°13'3818.6
2015-Aug-02 23:30N 36°54' E 141°25'2 0.0
2015-Aug-01 01:23N 36°56' E 141°25'1819.3
2015-Aug-01 00:26N 36°38' E 141°20'1918.8
2015-Jul-31 23:24N 36°20' E 141°13'1619.3
2015-Jul-31 22:33N 36°04' E 141°08'1919.4
2015-Jul-31 21:33N 35°45' E 141°03'1918.9
2015-Jul-31 20:33N 35°28' E 140°52'2018.6
2015-Jul-31 19:27N 35°12' E 140°37'1918.9
2015-Jul-31 18:28N 34°60' E 140°19'1719.0
2015-Jul-31 17:33N 34°51' E 140°01'1716.5
2015-Jul-31 16:33N 34°57' E 139°42'1817.8
2015-Jul-31 15:33N 35°15' E 139°46'1212.5
2015-Jul-31 14:33N 35°27' E 139°48'1010.4
2015-Jul-31 13:34N 35°38' E 139°46'0 0.0
2015-Jul-31 12:34N 35°38' E 139°46'0 0.0
2015-Jul-31 11:34N 35°38' E 139°46'0 0.0
2015-Jul-31 10:34N 35°38' E 139°46'0 0.0
2015-Jul-31 09:30N 35°38' E 139°46'0 0.0
2015-Jul-31 08:33N 35°38' E 139°46'1010.3
2015-Jul-31 07:33N 35°29' E 139°53'1313.4
2015-Jul-31 06:33N 35°17' E 139°45'1615.9
2015-Jul-31 05:33N 35°01' E 139°44'1515.2
2015-Jul-31 04:33N 34°51' E 139°57'1817.9
2015-Jul-31 03:33N 34°58' E 140°17'1818.3
2015-Jul-31 02:33N 35°10' E 140°34'1918.6
2015-Jul-31 01:33N 35°25' E 140°48'1818.3
2015-Jul-31 00:33N 35°40' E 140°59'1918.6
2015-Jul-30 23:33N 35°58' E 141°06'1918.7
2015-Jul-30 22:33N 36°16' E 141°12'1919.3
2015-Jul-30 21:33N 36°35' E 141°18'1919.4
2015-Jul-30 20:33N 36°54' E 141°24'23 0.5
2015-Jul-29 00:18N 36°31' E 141°17'1519.5
2015-Jul-28 23:31N 36°16' E 141°13'1919.5
2015-Jul-28 22:33N 35°58' E 141°08'2019.6
2015-Jul-28 21:33N 35°39' E 141°02'2019.8
2015-Jul-28 20:33N 35°23' E 140°47'2019.4
2015-Jul-28 19:32N 35°08' E 140°31'1919.1
2015-Jul-28 18:33N 34°57' E 140°13'2019.6
2015-Jul-28 17:33N 34°52' E 139°50'1717.3
2015-Jul-28 16:33N 35°08' E 139°45'1413.6
2015-Jul-28 15:33N 35°22' E 139°42'1414.2
2015-Jul-28 14:33N 35°35' E 139°47'3 2.9
2015-Jul-28 13:33N 35°38' E 139°46'0 0.0
2015-Jul-28 12:27N 35°38' E 139°46'0 0.0
2015-Jul-28 11:33N 35°38' E 139°46'0 0.0
2015-Jul-28 10:33N 35°38' E 139°46'0 0.0
2015-Jul-28 09:33N 35°38' E 139°46'3 3.0
2015-Jul-28 08:33N 35°35' E 139°48'1111.2
2015-Jul-28 07:33N 35°24' E 139°46'1111.3
2015-Jul-28 06:33N 35°13' E 139°47'1514.8
2015-Jul-28 05:34N 34°58' E 139°43'1212.4
2015-Jul-28 04:33N 34°51' E 139°56'1817.8
2015-Jul-28 03:33N 34°59' E 140°16'1817.7
2015-Jul-28 02:34N 35°09' E 140°33'1817.6
2015-Jul-28 01:33N 35°24' E 140°45'5317.8
2015-Jul-27 22:33N 36°14' E 141°10'1818.1
2015-Jul-27 21:33N 36°31' E 141°15'1918.8
2015-Jul-27 20:34N 36°49' E 141°21'11 0.3
2015-Jul-26 00:09N 36°38' E 141°20'1119.0
2015-Jul-25 23:33N 36°27' E 141°17'1918.8
2015-Jul-25 22:33N 36°09' E 141°11'1918.8
2015-Jul-25 21:33N 35°50' E 141°05'1918.8
2015-Jul-25 20:33N 35°33' E 140°56'2019.2
2015-Jul-25 19:32N 35°18' E 140°40'1919.5
2015-Jul-25 18:33N 35°04' E 140°25'1818.3
2015-Jul-25 17:33N 34°54' E 140°06'1717.3
2015-Jul-25 16:33N 34°54' E 139°45'1918.8
2015-Jul-25 15:33N 35°13' E 139°46'1312.9
2015-Jul-25 14:34N 35°25' E 139°44'1212.0
2015-Jul-25 13:33N 35°37' E 139°46'0 0.3
2015-Jul-25 12:32N 35°38' E 139°46'0 0.0
2015-Jul-25 11:32N 35°38' E 139°46'0 0.0
2015-Jul-25 10:32N 35°38' E 139°46'0 0.0
2015-Jul-25 09:32N 35°38' E 139°46'1 0.7
2015-Jul-25 08:33N 35°37' E 139°46'1111.1
2015-Jul-25 07:33N 35°26' E 139°48'1211.5
2015-Jul-25 06:33N 35°15' E 139°47'1716.7
2015-Jul-25 05:33N 34°58' E 139°44'1313.0
2015-Jul-25 04:33N 34°52' E 139°58'1918.6
2015-Jul-25 03:31N 35°00' E 140°19'1818.3
2015-Jul-25 02:33N 35°12' E 140°35'3718.4
2015-Jul-25 00:32N 35°43' E 141°00'2018.8
2015-Jul-24 23:29N 36°02' E 141°09'1819.4
2015-Jul-24 22:33N 36°19' E 141°14'1919.0
2015-Jul-24 21:32N 36°38' E 141°20'1918.8
2015-Jul-24 20:33N 36°56' E 141°27'  

Dump ship's entire track history